createdAt,value
2022-08-17T00:00:13.608Z,23.75
2022-08-17T00:03:06.421Z,23.67
2022-08-17T00:05:46.166Z,23.40
2022-08-17T00:08:14.943Z,23.07
2022-08-17T00:10:43.618Z,22.81
2022-08-17T00:13:18.724Z,23.19
2022-08-17T00:15:46.096Z,23.66
2022-08-17T00:19:01.685Z,23.64
2022-08-17T00:21:01.496Z,23.36
2022-08-17T00:23:28.950Z,23.05
2022-08-17T00:25:56.324Z,22.76
2022-08-17T00:28:23.677Z,23.13
2022-08-17T00:30:55.437Z,23.59
2022-08-17T00:33:27.457Z,23.58
2022-08-17T00:35:55.011Z,23.34
2022-08-17T00:38:22.877Z,23.05
2022-08-17T00:40:55.691Z,22.79
2022-08-17T00:43:39.445Z,23.20
2022-08-17T00:46:11.580Z,23.62
2022-08-17T00:48:39.483Z,23.56
2022-08-17T00:51:12.497Z,23.32
2022-08-17T00:53:44.371Z,23.02
2022-08-17T00:56:15.061Z,22.76
2022-08-17T00:58:42.597Z,23.18
2022-08-17T01:01:09.935Z,23.60
2022-08-17T01:03:37.646Z,23.59
2022-08-17T01:06:05.672Z,23.37
2022-08-17T01:08:34.334Z,23.08
2022-08-17T01:11:02.639Z,22.82
2022-08-17T01:13:40.693Z,23.18
2022-08-17T01:16:16.107Z,23.61
2022-08-17T01:18:44.872Z,23.57
2022-08-17T01:21:17.775Z,23.32
2022-08-17T01:23:45.436Z,23.02
2022-08-17T01:26:13.128Z,22.74
2022-08-17T01:28:53.934Z,23.11
2022-08-17T01:31:26.335Z,23.57
2022-08-17T01:33:53.637Z,23.52
2022-08-17T01:36:21.076Z,23.28
2022-08-17T01:38:48.055Z,22.98
2022-08-17T01:41:16.487Z,22.68
2022-08-17T01:43:52.817Z,23.04
2022-08-17T01:46:27.230Z,23.47
2022-08-17T01:48:55.190Z,23.43
2022-08-17T01:51:25.307Z,23.16
2022-08-17T01:53:54.229Z,22.85
2022-08-17T01:56:23.152Z,22.54
2022-08-17T01:58:50.865Z,22.92
2022-08-17T02:01:30.689Z,23.35
2022-08-17T02:04:01.063Z,23.31
2022-08-17T02:06:52.410Z,23.06
2022-08-17T02:09:23.374Z,22.72
2022-08-17T02:11:51.898Z,22.45
2022-08-17T02:14:21.733Z,22.86
2022-08-17T02:16:49.370Z,23.33
2022-08-17T02:19:17.254Z,23.33
2022-08-17T02:21:46.647Z,23.10
2022-08-17T02:24:17.647Z,22.79
2022-08-17T02:27:05.324Z,22.48
2022-08-17T02:29:32.641Z,22.93
2022-08-17T02:32:01.950Z,23.31
2022-08-17T02:34:30.115Z,23.26
2022-08-17T02:36:57.519Z,23.03
2022-08-17T02:39:24.637Z,22.76
2022-08-17T02:42:02.626Z,22.50
2022-08-17T02:44:38.794Z,22.95
2022-08-17T02:47:08.194Z,23.40
2022-08-17T02:49:37.264Z,23.36
2022-08-17T02:52:06.693Z,23.12
2022-08-17T02:54:42.277Z,22.83
2022-08-17T02:57:10.406Z,22.56
2022-08-17T02:59:45.444Z,22.96
2022-08-17T03:02:15.660Z,23.41
2022-08-17T03:04:43.730Z,23.37
2022-08-17T03:07:11.990Z,23.13
2022-08-17T03:09:39.454Z,22.85
2022-08-17T03:12:12.946Z,22.58
2022-08-17T03:14:41.884Z,22.96
2022-08-17T03:17:17.043Z,23.40
2022-08-17T03:19:45.133Z,23.39
2022-08-17T03:22:34.754Z,23.16
2022-08-17T03:24:59.825Z,22.84
2022-08-17T03:27:27.433Z,22.59
2022-08-17T03:29:55.256Z,22.97
2022-08-17T03:32:22.396Z,23.44
2022-08-17T03:34:49.837Z,23.45
2022-08-17T03:37:17.101Z,23.24
2022-08-17T03:39:44.266Z,22.98
2022-08-17T03:42:32.553Z,22.73
2022-08-17T03:45:00.573Z,23.16
2022-08-17T03:47:46.400Z,23.57
2022-08-17T03:50:33.100Z,23.51
2022-08-17T03:53:19.667Z,23.22
2022-08-17T03:56:05.275Z,22.91
2022-08-17T03:58:32.638Z,22.65
2022-08-17T04:01:00.040Z,23.14
2022-08-17T04:03:27.325Z,23.57
2022-08-17T04:05:54.975Z,23.55
2022-08-17T04:08:22.335Z,23.33
2022-08-17T04:10:49.831Z,23.05
2022-08-17T04:13:24.770Z,22.79
2022-08-17T04:15:53.257Z,23.18
2022-08-17T04:18:21.006Z,23.62
2022-08-17T04:20:48.325Z,23.61
2022-08-17T04:23:16.928Z,23.39
2022-08-17T04:25:46.820Z,23.12
2022-08-17T04:28:15.846Z,22.87
2022-08-17T04:30:45.344Z,23.27
2022-08-17T04:33:15.585Z,23.74
2022-08-17T04:36:04.173Z,23.73
2022-08-17T04:38:36.046Z,23.48
2022-08-17T04:41:21.637Z,23.20
2022-08-17T04:43:56.096Z,22.94
2022-08-17T04:46:26.146Z,23.42
2022-08-17T04:48:55.948Z,23.81
2022-08-17T04:51:30.814Z,23.76
2022-08-17T04:54:03.059Z,23.53
2022-08-17T04:56:31.179Z,23.27
2022-08-17T04:59:10.082Z,23.01
2022-08-17T05:01:38.766Z,23.44
2022-08-17T05:04:21.493Z,23.88
2022-08-17T05:06:55.792Z,23.86
2022-08-17T05:09:23.048Z,23.65
2022-08-17T05:11:51.626Z,23.40
2022-08-17T05:14:19.703Z,23.16
2022-08-17T05:16:49.401Z,23.54
2022-08-17T05:19:16.506Z,24.01
2022-08-17T05:21:44.565Z,24.05
2022-08-17T05:24:38.348Z,23.87
2022-08-17T05:27:06.222Z,23.60
2022-08-17T05:29:35.900Z,23.35
2022-08-17T05:32:39.439Z,23.73
2022-08-17T05:35:00.441Z,24.20
2022-08-17T05:37:28.298Z,24.11
2022-08-17T05:39:55.562Z,23.85
2022-08-17T05:42:24.207Z,23.56
2022-08-17T05:44:51.610Z,23.30
2022-08-17T05:47:18.791Z,23.68
2022-08-17T05:49:48.977Z,24.14
2022-08-17T05:52:20.124Z,24.15
2022-08-17T05:55:14.672Z,23.91
2022-08-17T05:57:57.167Z,23.57
2022-08-17T06:00:56.754Z,23.31
2022-08-17T06:03:41.085Z,23.13
2022-08-17T06:06:31.408Z,23.81
2022-08-17T06:09:33.660Z,24.22
2022-08-17T06:12:24.733Z,24.08
2022-08-17T06:15:04.935Z,23.79
2022-08-17T06:17:32.312Z,23.51
2022-08-17T06:20:03.003Z,23.26
2022-08-17T06:22:33.802Z,23.66
2022-08-17T06:25:10.045Z,24.16
2022-08-17T06:27:59.843Z,24.19
2022-08-17T06:30:28.920Z,23.98
2022-08-17T06:33:22.581Z,23.69
2022-08-17T06:36:16.115Z,23.48
2022-08-17T06:38:58.401Z,24.05
2022-08-17T06:42:02.490Z,24.44
2022-08-17T06:44:50.154Z,24.34
2022-08-17T06:47:30.220Z,24.06
2022-08-17T06:50:03.390Z,23.79
2022-08-17T06:52:45.883Z,23.54
2022-08-17T06:55:21.404Z,24.07
2022-08-17T06:57:53.981Z,24.53
2022-08-17T07:00:24.064Z,24.53
2022-08-17T07:03:00.200Z,24.35
2022-08-17T07:05:34.020Z,24.11
2022-08-17T07:08:09.356Z,23.89
2022-08-17T07:10:45.776Z,24.35
2022-08-17T07:13:44.536Z,24.84
2022-08-17T07:16:28.451Z,24.78
2022-08-17T07:18:56.573Z,24.53
2022-08-17T07:21:42.475Z,24.31
2022-08-17T07:24:45.301Z,24.10
2022-08-17T07:27:20.607Z,24.77
2022-08-17T07:30:10.087Z,25.13
2022-08-17T07:32:48.955Z,25.03
2022-08-17T07:35:16.157Z,24.79
2022-08-17T07:37:54.187Z,24.50
2022-08-17T07:40:27.644Z,24.20
2022-08-17T07:43:12.562Z,24.58
2022-08-17T07:46:12.396Z,25.01
2022-08-17T07:48:41.117Z,24.93
2022-08-17T07:51:20.695Z,24.70
2022-08-17T07:53:48.090Z,24.45
2022-08-17T07:56:42.100Z,24.23
2022-08-17T07:59:23.701Z,24.71
2022-08-17T08:01:58.292Z,25.15
2022-08-17T08:05:00.081Z,25.12
2022-08-17T08:07:26.973Z,24.86
2022-08-17T08:10:10.827Z,24.60
2022-08-17T08:12:42.911Z,24.38
2022-08-17T08:15:18.980Z,24.85
2022-08-17T08:17:57.823Z,25.27
2022-08-17T08:20:51.743Z,25.23
2022-08-17T08:23:32.897Z,24.97
2022-08-17T08:26:03.173Z,24.71
2022-08-17T08:29:01.607Z,24.49
2022-08-17T08:31:48.229Z,25.04
2022-08-17T08:35:01.406Z,25.50
2022-08-17T08:37:55.743Z,25.40
2022-08-17T08:40:35.720Z,25.11
2022-08-17T08:43:36.402Z,24.83
2022-08-17T08:46:28.299Z,24.71
2022-08-17T08:50:01.264Z,25.45
2022-08-17T08:52:51.809Z,25.86
2022-08-17T08:55:50.408Z,25.71
2022-08-17T08:58:32.212Z,25.40
2022-08-17T09:01:29.541Z,25.12
2022-08-17T09:04:24.238Z,24.93
2022-08-17T09:06:58.871Z,25.61
2022-08-17T09:09:46.226Z,26.00
2022-08-17T09:12:13.842Z,25.96
2022-08-17T09:14:49.507Z,25.76
2022-08-17T09:17:37.771Z,25.52
2022-08-17T09:20:30.332Z,25.27
2022-08-17T09:23:28.742Z,25.12
2022-08-17T09:26:01.141Z,25.87
2022-08-17T09:28:32.227Z,26.29
2022-08-17T09:31:04.368Z,26.32
2022-08-17T09:33:32.021Z,26.18
2022-08-17T09:36:29.632Z,26.02
2022-08-17T09:39:02.287Z,25.83
2022-08-17T09:41:51.039Z,25.66
2022-08-17T09:44:39.984Z,26.21
2022-08-17T09:47:46.686Z,26.71
2022-08-17T09:50:20.363Z,26.67
2022-08-17T09:53:08.208Z,26.42
2022-08-17T09:55:50.168Z,26.22
2022-08-17T09:58:29.449Z,26.11
2022-08-17T10:01:08.251Z,26.09
2022-08-17T10:03:52.513Z,26.80
2022-08-17T10:06:23.366Z,27.44
2022-08-17T10:09:08.349Z,27.54
2022-08-17T10:12:06.332Z,27.38
2022-08-17T10:14:44.016Z,27.04
2022-08-17T10:17:16.702Z,26.76
2022-08-17T10:19:47.331Z,26.51
2022-08-17T10:22:51.201Z,26.34
2022-08-17T10:25:54.004Z,26.96
2022-08-17T10:28:28.791Z,27.26
2022-08-17T10:33:47.743Z,26.73
2022-08-17T10:36:23.466Z,26.43
2022-08-17T10:39:12.351Z,26.20
2022-08-17T10:41:43.659Z,25.98
2022-08-17T10:44:39.482Z,25.78
2022-08-17T10:47:07.987Z,26.32
2022-08-17T10:49:37.141Z,26.70
2022-08-17T10:52:20.012Z,26.66
2022-08-17T10:54:50.624Z,26.40
2022-08-17T10:57:42.027Z,26.17
2022-08-17T11:00:15.963Z,25.99
2022-08-17T11:05:44.084Z,25.82
2022-08-17T11:08:49.817Z,26.60
2022-08-17T11:11:38.556Z,27.17
2022-08-17T11:14:30.625Z,27.10
2022-08-17T11:17:03.782Z,26.82
2022-08-17T11:19:53.540Z,26.51
2022-08-17T11:22:42.427Z,26.15
2022-08-17T11:25:20.312Z,25.81
2022-08-17T11:27:53.935Z,26.22
2022-08-17T11:30:57.238Z,26.50
2022-08-17T11:33:54.058Z,26.32
2022-08-17T11:36:31.666Z,25.93
2022-08-17T11:41:27.503Z,25.12
2022-08-17T11:44:13.499Z,24.82
2022-08-17T11:47:07.877Z,24.57
2022-08-17T11:50:22.453Z,25.25
2022-08-17T11:52:51.638Z,25.71
2022-08-17T11:55:38.469Z,25.69
2022-08-17T11:58:29.880Z,25.51
2022-08-17T12:00:59.567Z,25.25
2022-08-17T12:03:33.085Z,25.03
2022-08-17T12:06:17.693Z,25.40
2022-08-17T12:08:55.332Z,25.88
2022-08-17T12:11:58.617Z,25.81
2022-08-17T12:14:20.160Z,25.51
2022-08-17T12:17:14.156Z,25.22
2022-08-17T12:19:53.464Z,25.02
2022-08-17T12:22:29.438Z,25.57
2022-08-17T12:25:05.124Z,25.92
2022-08-17T12:28:05.682Z,25.83
2022-08-17T12:30:21.493Z,25.59
2022-08-17T12:32:48.963Z,25.35
2022-08-17T12:35:35.630Z,25.13
2022-08-17T12:38:03.779Z,25.63
2022-08-17T12:40:32.221Z,26.07
2022-08-17T12:43:01.627Z,26.10
2022-08-17T12:45:31.001Z,25.93
2022-08-17T12:48:08.373Z,25.70
2022-08-17T12:50:37.277Z,25.35
2022-08-17T12:53:14.509Z,25.04
2022-08-17T12:55:43.296Z,25.48
2022-08-17T12:58:14.518Z,25.90
2022-08-17T13:00:47.629Z,25.86
2022-08-17T13:03:20.271Z,25.63
2022-08-17T13:05:59.254Z,25.34
2022-08-17T13:08:32.273Z,25.06
2022-08-17T13:11:21.384Z,24.89
2022-08-17T13:13:56.543Z,25.60
2022-08-17T13:16:25.710Z,26.20
2022-08-17T13:19:05.960Z,26.39
2022-08-17T13:21:36.047Z,26.36
2022-08-17T13:24:07.892Z,26.27
2022-08-17T13:26:49.412Z,26.12
2022-08-17T13:29:25.372Z,26.67
2022-08-17T13:31:56.380Z,27.10
2022-08-17T13:34:39.916Z,27.03
2022-08-17T13:37:30.226Z,26.80
2022-08-17T13:40:09.715Z,26.59
2022-08-17T13:42:53.844Z,26.48
2022-08-17T13:45:36.315Z,27.05
2022-08-17T13:48:23.952Z,27.42
2022-08-17T13:50:57.872Z,27.23
2022-08-17T13:53:52.097Z,26.99
2022-08-17T13:56:37.453Z,26.73
2022-08-17T13:59:09.238Z,26.51
2022-08-17T14:01:42.091Z,26.94
2022-08-17T14:04:21.114Z,27.27
2022-08-17T14:06:59.744Z,27.15
2022-08-17T14:09:33.580Z,26.90
2022-08-17T14:12:06.614Z,26.72
2022-08-17T14:14:34.443Z,26.55
2022-08-17T14:17:01.706Z,26.40
2022-08-17T14:19:31.598Z,26.93
2022-08-17T14:21:59.149Z,27.46
2022-08-17T14:24:28.841Z,27.55
2022-08-17T14:26:56.352Z,27.48
2022-08-17T14:29:25.449Z,27.32
2022-08-17T14:31:54.782Z,27.15
2022-08-17T14:34:23.304Z,26.97
2022-08-17T14:36:50.780Z,26.79
2022-08-17T14:39:18.227Z,27.22
2022-08-17T14:41:45.545Z,27.63
2022-08-17T14:44:13.279Z,27.55
2022-08-17T14:46:41.041Z,27.28
2022-08-17T14:49:08.961Z,26.95
2022-08-17T14:51:43.847Z,26.63
2022-08-17T14:54:34.268Z,26.35
2022-08-17T14:57:08.645Z,26.19
2022-08-17T14:59:49.226Z,26.86
2022-08-17T15:02:29.901Z,27.37
2022-08-17T15:05:04.693Z,27.42
2022-08-17T15:07:32.401Z,27.32
2022-08-17T15:10:01.693Z,27.21
2022-08-17T15:12:32.698Z,27.04
2022-08-17T15:15:04.709Z,26.88
2022-08-17T15:17:44.837Z,26.76
2022-08-17T15:20:19.115Z,27.35
2022-08-17T15:22:46.901Z,27.88
2022-08-17T15:25:14.037Z,27.97
2022-08-17T15:27:42.301Z,27.82
2022-08-17T15:30:10.223Z,27.63
2022-08-17T15:32:38.555Z,27.43
2022-08-17T15:35:06.663Z,27.28
2022-08-17T15:37:33.927Z,27.09
2022-08-17T15:40:01.310Z,26.99
2022-08-17T15:42:29.402Z,27.51
2022-08-17T15:44:56.665Z,28.10
2022-08-17T15:47:25.165Z,28.18
2022-08-17T15:49:57.899Z,28.04
2022-08-17T15:52:29.709Z,27.82
2022-08-17T15:54:58.961Z,27.59
2022-08-17T15:57:26.947Z,27.42
2022-08-17T15:59:58.440Z,27.27
2022-08-17T16:03:44.914Z,27.14
2022-08-17T16:05:17.238Z,27.08
2022-08-17T16:07:46.059Z,27.74
2022-08-17T16:10:18.649Z,28.27
2022-08-17T16:12:47.394Z,28.31
2022-08-17T16:15:15.385Z,28.08
2022-08-17T16:17:42.747Z,27.83
2022-08-17T16:20:19.601Z,27.63
2022-08-17T16:22:48.441Z,27.42
2022-08-17T16:25:21.324Z,27.21
2022-08-17T16:27:50.489Z,26.98
2022-08-17T16:30:18.179Z,26.79
2022-08-17T16:32:45.815Z,27.15
2022-08-17T16:35:18.478Z,27.65
2022-08-17T16:37:45.869Z,27.66
2022-08-17T16:40:16.723Z,27.43
2022-08-17T16:42:45.397Z,27.12
2022-08-17T16:45:16.828Z,26.84
2022-08-17T16:47:45.781Z,26.59
2022-08-17T16:50:14.783Z,26.37
2022-08-17T16:52:42.769Z,26.17
2022-08-17T16:55:13.321Z,26.01
2022-08-17T16:57:47.505Z,26.51
2022-08-17T17:00:22.752Z,27.07
2022-08-17T17:02:50.908Z,27.08
2022-08-17T17:06:03.663Z,26.86
2022-08-17T17:08:43.609Z,26.44
2022-08-17T17:11:14.653Z,26.12
2022-08-17T17:13:58.599Z,25.84
2022-08-17T17:16:29.005Z,25.54
2022-08-17T17:19:08.128Z,25.32
2022-08-17T17:21:51.962Z,25.81
2022-08-17T17:24:29.939Z,26.26
2022-08-17T17:27:07.339Z,26.15
2022-08-17T17:29:48.276Z,25.83
2022-08-17T17:32:31.155Z,25.45
2022-08-17T17:35:04.662Z,25.09
2022-08-17T17:37:33.567Z,24.82
2022-08-17T17:40:09.555Z,25.21
2022-08-17T17:42:36.770Z,25.69
2022-08-17T17:45:24.507Z,25.64
2022-08-17T17:47:52.789Z,25.32
2022-08-17T17:50:21.536Z,25.01
2022-08-17T17:52:52.562Z,24.72
2022-08-17T17:55:19.833Z,24.44
2022-08-17T17:58:20.997Z,24.81
2022-08-17T18:00:50.974Z,25.29
2022-08-17T18:03:33.162Z,25.21
2022-08-17T18:06:13.619Z,24.93
2022-08-17T18:08:53.384Z,24.59
2022-08-17T18:11:45.224Z,24.29
2022-08-17T18:14:33.562Z,24.05
2022-08-17T18:17:01.308Z,24.65
2022-08-17T18:19:29.455Z,25.00
2022-08-17T18:22:14.825Z,24.91
2022-08-17T18:24:44.060Z,24.61
2022-08-17T18:27:38.778Z,24.28
2022-08-17T18:30:18.513Z,23.89
2022-08-17T18:32:46.687Z,23.60
2022-08-17T18:35:14.409Z,24.08
2022-08-17T18:37:45.166Z,24.53
2022-08-17T18:40:23.540Z,24.48
2022-08-17T18:42:50.612Z,24.20
2022-08-17T18:45:30.907Z,23.89
2022-08-17T18:47:58.133Z,23.54
2022-08-17T18:50:27.634Z,23.25
2022-08-17T18:52:56.203Z,23.61
2022-08-17T18:55:24.914Z,24.09
2022-08-17T18:58:13.411Z,24.11
2022-08-17T19:00:42.416Z,23.84
2022-08-17T19:03:16.099Z,23.54
2022-08-17T19:05:48.424Z,23.25
2022-08-17T19:08:28.538Z,22.99
2022-08-17T19:11:02.223Z,23.49
2022-08-17T19:13:32.841Z,23.91
2022-08-17T19:16:15.268Z,23.87
2022-08-17T19:18:49.477Z,23.59
2022-08-17T19:21:34.927Z,23.27
2022-08-17T19:24:11.721Z,22.96
2022-08-17T19:26:50.701Z,23.38
2022-08-17T19:29:45.453Z,23.74
2022-08-17T19:32:12.906Z,23.60
2022-08-17T19:34:44.180Z,23.34
2022-08-17T19:37:21.671Z,23.03
2022-08-17T19:40:04.719Z,22.76
2022-08-17T19:42:42.579Z,23.24
2022-08-17T19:45:21.292Z,23.63
2022-08-17T19:48:04.758Z,23.53
2022-08-17T19:50:54.305Z,23.24
2022-08-17T19:53:30.099Z,22.91
2022-08-17T19:56:35.344Z,22.64
2022-08-17T19:59:23.135Z,23.23
2022-08-17T20:02:09.217Z,23.57
2022-08-17T20:04:40.850Z,23.40
2022-08-17T20:07:19.585Z,23.11
2022-08-17T20:09:55.307Z,22.79
2022-08-17T20:12:38.516Z,22.51
2022-08-17T20:15:23.117Z,22.99
2022-08-17T20:17:50.393Z,23.40
2022-08-17T20:20:39.295Z,23.32
2022-08-17T20:23:18.475Z,23.04
2022-08-17T20:26:18.534Z,22.74
2022-08-17T20:29:37.655Z,22.48
2022-08-17T20:32:22.416Z,23.11
2022-08-17T20:34:51.517Z,23.28
2022-08-17T20:37:18.649Z,23.10
2022-08-17T20:39:52.749Z,22.81
2022-08-17T20:42:20.539Z,22.52
2022-08-17T20:44:53.099Z,22.29
2022-08-17T20:47:55.091Z,22.73
2022-08-17T20:50:33.587Z,23.26
2022-08-17T20:53:09.184Z,23.17
2022-08-17T20:55:51.894Z,22.90
2022-08-17T20:58:29.858Z,22.56
2022-08-17T21:01:01.622Z,22.29
2022-08-17T21:03:49.976Z,22.74
2022-08-17T21:06:18.067Z,23.21
2022-08-17T21:09:18.875Z,23.14
2022-08-17T21:12:03.756Z,22.83
2022-08-17T21:14:58.145Z,22.49
2022-08-17T21:17:46.856Z,22.23
2022-08-17T21:20:22.398Z,22.82
2022-08-17T21:22:57.868Z,23.17
2022-08-17T21:25:28.372Z,23.04
2022-08-17T21:28:14.433Z,22.77
2022-08-17T21:30:48.226Z,22.44
2022-08-17T21:33:25.849Z,22.18
2022-08-17T21:36:16.175Z,22.65
2022-08-17T21:38:57.093Z,23.12
2022-08-17T21:41:34.269Z,23.04
2022-08-17T21:44:11.531Z,22.77
2022-08-17T21:46:42.941Z,22.46
2022-08-17T21:49:16.843Z,22.19
2022-08-17T21:51:51.678Z,22.61
2022-08-17T21:54:35.637Z,23.05
2022-08-17T21:57:04.336Z,22.96
2022-08-17T21:59:37.844Z,22.70
2022-08-17T22:02:07.963Z,22.40
2022-08-17T22:04:43.193Z,22.12
2022-08-17T22:07:13.219Z,22.50
2022-08-17T22:09:46.284Z,22.94
2022-08-17T22:12:21.028Z,22.90
2022-08-17T22:15:00.490Z,22.61
2022-08-17T22:17:35.989Z,22.25
2022-08-17T22:20:17.529Z,21.95
2022-08-17T22:23:12.754Z,22.36
2022-08-17T22:25:41.563Z,22.75
2022-08-17T22:28:10.179Z,22.62
2022-08-17T22:30:59.135Z,22.36
2022-08-17T22:33:36.358Z,22.02
2022-08-17T22:36:29.533Z,21.76
2022-08-17T22:38:57.865Z,22.28
2022-08-17T22:41:26.724Z,22.63
2022-08-17T22:43:54.236Z,22.55
2022-08-17T22:46:21.383Z,22.28
2022-08-17T22:48:50.456Z,21.99
2022-08-17T22:51:21.475Z,21.71
2022-08-17T22:54:14.377Z,22.07
2022-08-17T22:57:09.369Z,22.53
2022-08-17T22:59:41.711Z,22.40
2022-08-17T23:02:14.782Z,22.13
2022-08-17T23:04:47.862Z,21.81
2022-08-17T23:07:15.188Z,21.53
2022-08-17T23:09:42.916Z,21.92
2022-08-17T23:12:11.762Z,22.37
2022-08-17T23:14:45.836Z,22.35
2022-08-17T23:17:13.518Z,22.10
2022-08-17T23:19:41.031Z,21.82
2022-08-17T23:22:08.866Z,21.55
2022-08-17T23:24:45.129Z,21.90
2022-08-17T23:27:12.517Z,22.37
2022-08-17T23:29:42.141Z,22.35
2022-08-17T23:32:11.742Z,22.11
2022-08-17T23:34:39.391Z,21.82
2022-08-17T23:37:07.259Z,21.55
2022-08-17T23:39:35.457Z,21.90
2022-08-17T23:42:10.549Z,22.34
2022-08-17T23:44:38.248Z,22.32
2022-08-17T23:47:05.741Z,22.10
2022-08-17T23:49:40.551Z,21.81
2022-08-17T23:52:10.001Z,21.52
2022-08-17T23:54:43.965Z,21.90
2022-08-17T23:57:12.941Z,22.32
2022-08-17T23:59:40.820Z,22.28
